• Join FlightAware (Why Join?)
  • Login
  • US Flag GB Flag 
05:48 EDT


 

Airport Tracker/Info


-or-


 

Live Flight TrackerFlight Track Log ✈ SWA193 ✈ 23-Apr-2013 ✈ KFLL - KISP

Flight Track Log - Related Links

Times and Time Zones

All times are in EDT time to prevent confusion due to time zone crossing. See the SWA193 flight status page for this flight to view local times or setup timezone preferences in your user account.

Time Position Orientation Groundspeed Altitude Reporting Facility
EDT Latitude Longitude Course Direction KTS MPH feet Rate Location/Type
07:40 26.0750 -80.1367 89° East 172 198 700  Level Miami Center
07:41 26.0761 -80.0811 89° East 180 207 2,600 2,160 Climbing Miami Center
07:42 26.0797 -80.0142 87° East 202 232 5,100 2,880 Climbing Miami Center
07:43 26.0878 -79.9289 84° East 240 276 8,400 3,300 Climbing Miami Center
07:44 26.1311 -79.8536 57° Northeast 267 307 11,700 3,060 Climbing Miami Center
07:45 26.1850 -79.7761 52° Northeast 281 323 14,600 2,220 Climbing Miami Center
07:46 26.2472 -79.6853 53° Northeast 321 369 16,200 2,280 Climbing Miami Center
07:47 26.3181 -79.5825 52° Northeast 379 436 19,200 2,700 Climbing Miami Center
07:48 26.4092 -79.5150 34° Northeast 384 442 21,700 2,520 Climbing Miami Center
07:49 26.5067 -79.4475 32° Northeast 404 465 24,300 2,220 Climbing Miami Center
07:50 26.6039 -79.3753 34° Northeast 409 471 26,200 1,740 Climbing Miami Center
07:51 26.6947 -79.3100 33° Northeast 424 488 27,800 1,560 Climbing Miami Center
07:52 26.8025 -79.2400 30° Northeast 424 488 29,400 1,560 Climbing Miami Center
07:53 26.9081 -79.1628 33° Northeast 436 502 31,000 1,680 Climbing Miami Center
07:54 27.0139 -79.0856 33° Northeast 441 507 32,800 1,560 Climbing Miami Center
07:55 27.1281 -78.9969 35° Northeast 446 513 34,200 1,260 Climbing Miami Center
07:56 27.2378 -78.9172 33° Northeast 451 519 35,400 1,200 Climbing Miami Center
07:57 27.3369 -78.8442 33° Northeast 467 537 36,700 1,200 Climbing Miami Center
07:58 27.4503 -78.7897 23° Northeast 452 520 37,800 1,140 Climbing Miami Center
07:59 27.5822 -78.7708 North 426 490 39,000 600 Climbing Miami Center
08:00 27.6994 -78.7517 North 421 484 39,000  Level Miami Center
08:01 27.8061 -78.7347 North 427 491 39,000  Level Miami Center
08:02 27.9272 -78.7225 North 427 491 39,000  Level Miami Center
08:03 28.0467 -78.7058 North 427 491 39,000  Level Miami Center
08:04 28.1636 -78.6889 North 427 491 39,000  Level Miami Center
08:05 28.2808 -78.6694 North 427 491 39,000  Level Miami Center
08:06 28.4000 -78.6550 North 422 486 39,000  Level Miami Center
08:07 28.5150 -78.6356 North 422 486 39,000  Level Miami Center
08:08 28.6322 -78.6183 North 430 495 39,000  Level Miami Center
08:09 28.7514 -78.6014 North 425 489 39,000  Level Miami Center
08:10 28.8747 -78.5844 North 425 489 39,000  Level Miami Center
08:11 28.9875 -78.5647 North 425 489 39,000  Level Miami Center
08:12 29.1025 -78.5475 North 419 482 39,000  Level Miami Center
08:13 29.2236 -78.5303 North 426 490 39,000  Level Miami Center
08:14 29.3450 -78.5156 North 426 490 39,000  Level Miami Center
08:15 29.4578 -78.4933 10° North 426 490 39,000  Level Miami Center
08:16 29.5728 -78.4783 North 426 490 39,000  Level Miami Center
08:16 29.6883 -78.4558 10° North 423 487 39,000  Level Jacksonville Center
08:17 29.8047 -78.4386 North 453 521 39,000  Level Jacksonville Center
08:18 29.9250 -78.4211 North 441 507 39,000  Level Jacksonville Center
08:19 30.0433 -78.3989 North 436 502 39,000  Level Jacksonville Center
08:20 30.1658 -78.3833 North 436 502 39,000  Level Jacksonville Center
08:21 30.2844 -78.3683 North 433 498 39,000  Level Jacksonville Center
08:22 30.4061 -78.3311 15° North 441 507 39,000  Level Jacksonville Center
08:23 30.5319 -78.2867 17° North 449 517 39,000  Level Jacksonville Center
08:24 30.6453 -78.2472 17° North 436 502 39,000  Level Jacksonville Center
08:25 30.7606 -78.2078 16° North 433 498 39,000  Level Jacksonville Center
08:26 30.8844 -78.1678 15° North 442 509 39,000  Level Jacksonville Center
08:27 30.9914 -78.1261 18° North 423 487 39,000  Level Jacksonville Center
08:28 31.1006 -78.0867 17° North 428 493 39,000  Level Jacksonville Center
08:29 31.2178 -78.0417 18° North 433 498 39,000  Level Jacksonville Center
08:30 31.3336 -78.0092 13° North 433 498 39,000  Level Jacksonville Center
08:31 31.4508 -77.9639 18° North 433 498 39,000  Level Jacksonville Center
08:32 31.5703 -77.9258 15° North 433 498 39,000  Level Jacksonville Center
08:33 31.6878 -77.8881 15° North 433 498 39,000  Level Jacksonville Center
08:34 31.8092 -77.8422 18° North 438 504 39,000  Level Jacksonville Center
08:35 31.9261 -77.7942 19° North 438 504 39,000 -300 Level Jacksonville Center
08:36 32.0478 -77.7556 15° North 443 510 38,500 -720 Descending Jacksonville Center
08:37 32.1650 -77.7147 16° North 443 510 37,600 -780 Descending Jacksonville Center
08:38 32.2822 -77.6711 17° North 438 504 37,000 -300 Descending Jacksonville Center
08:39 32.4017 -77.6325 15° North 433 498 37,000  Level Jacksonville Center
08:40 32.5231 -77.5908 16° North 433 498 37,000  Level Jacksonville Center
08:41 32.6422 -77.5494 16° North 433 498 37,000  Level Jacksonville Center
08:44 32.9372 -77.4372 18° North 437 503 37,000  Level Washington Center
08:45 33.0611 -77.3953 16° North 448 516 37,000  Level Washington Center
08:46 33.1972 -77.3461 17° North 453 521 37,000  Level Washington Center
08:47 33.3189 -77.3014 17° North 453 521 37,000  Level Washington Center
08:48 33.4428 -77.2567 17° North 460 529 37,000  Level Washington Center
08:49 33.5622 -77.2142 17° North 460 529 37,000  Level Washington Center
08:50 33.6881 -77.1642 18° North 460 529 37,000  Level Washington Center
08:51 33.8136 -77.1192 17° North 460 529 37,000  Level Washington Center
08:52 33.9394 -77.0739 17° North 460 529 37,000  Level Washington Center
08:53 34.0653 -77.0261 17° North 465 535 37,000  Level Washington Center
08:54 34.1931 -76.9781 17° North 465 535 37,000  Level Washington Center
08:55 34.3208 -76.9297 17° North 465 535 37,000  Level Washington Center
08:56 34.4464 -76.8817 18° North 465 535 37,000  Level Washington Center
08:57 34.5742 -76.8356 17° North 471 542 37,000  Level Washington Center
08:58 34.7019 -76.7869 17° North 471 542 37,000  Level Washington Center
08:59 34.8278 -76.7383 18° North 471 542 37,000  Level Washington Center
09:00 34.9556 -76.6919 17° North 471 542 37,000  Level Washington Center
09:01 35.0853 -76.6481 15° North 471 542 37,000  Level Washington Center
09:02 35.2108 -76.5936 20° North 476 548 37,000  Level Washington Center
09:03 35.3406 -76.5444 17° North 476 548 37,000  Level Washington Center
09:04 35.4578 -76.5000 17° North 484 557 37,000  Level Washington Center
09:05 35.5897 -76.4453 19° North 479 551 37,000  Level Washington Center
09:06 35.7194 -76.3978 17° North 479 551 37,000  Level Washington Center
09:07 35.8533 -76.3456 18° North 485 558 37,000  Level Washington Center
09:08 35.9869 -76.2953 17° North 485 558 37,000  Level Washington Center
09:09 36.1167 -76.2450 17° North 485 558 37,000  Level Washington Center
09:10 36.2483 -76.1919 18° North 485 558 37,000  Level Washington Center
09:11 36.3800 -76.1414 17° North 485 558 37,000  Level Washington Center
09:12 36.5139 -76.0881 18° North 485 558 37,000  Level Washington Center
09:13 36.6414 -76.0372 18° North 485 558 37,000  Level Washington Center
09:14 36.7897 -75.9783 18° North 485 558 37,000  Level Washington Center
09:15 36.9211 -75.9244 18° North 490 564 37,000  Level Washington Center
09:16 37.0633 -75.8731 16° North 502 578 37,000  Level Washington Center
09:17 37.1947 -75.8214 17° North 502 578 37,000  Level Washington Center
09:18 37.3283 -75.7642 19° North 502 578 37,000  Level Washington Center
09:19 37.4639 -75.7122 17° North 502 578 37,000  Level Washington Center
09:20 37.5975 -75.6547 19° North 502 578 37,000  Level Washington Center
09:21 37.7353 -75.6022 17° North 502 578 37,000  Level Washington Center
09:22 37.8686 -75.5417 20° North 502 578 37,000  Level Washington Center
09:23 38.0042 -75.4889 17° North 502 578 37,000  Level Washington Center
09:24 38.1356 -75.4175 23° Northeast 502 578 37,000  Level Washington Center
09:25 38.2644 -75.3378 26° Northeast 507 583 37,000  Level Washington Center
09:26 38.3792 -75.2633 27° Northeast 507 583 37,000  Level Washington Center
09:27 38.5061 -75.1778 28° Northeast 507 583 37,000  Level Washington Center
09:28 38.6369 -75.0972 26° Northeast 512 589 37,000  Level Washington Center
09:29 38.7658 -75.0167 26° Northeast 512 589 37,000 -1,020 Level Washington Center
09:30 38.8947 -74.9356 26° Northeast 512 589 35,000 -2,100 Descending Washington Center
09:31 39.0089 -74.8597 27° Northeast 512 589 32,900 -2,280 Descending Washington Center
09:32 39.1372 -74.7353 37° Northeast 483 556 30,500 -2,160 Descending Washington Center
09:33 39.2219 -74.6111 49° Northeast 458 527 28,600 -2,340 Descending Washington Center
09:34 39.2978 -74.4892 51° Northeast 451 519 25,900 -2,160 Descending Washington Center
09:36 39.4842 -74.2058 50° Northeast 445 512 21,200 -1,440 Descending New York Center
09:37 39.5583 -74.0883 51° Northeast 425 489 21,000 -420 Descending New York Center
09:38 39.6261 -73.9808 51° Northeast 405 466 20,400 -840 Descending New York Center
09:39 39.6914 -73.8758 51° Northeast 382 440 19,400 -1,020 Descending New York Center
09:40 39.7567 -73.7736 50° Northeast 367 422 18,400 -900 Descending New York Center
09:43 39.9025 -73.5733 46° Northeast 351 404 16,600 -1,020 Descending Boston Center
09:44 39.9761 -73.4853 42° Northeast 333 383 15,300 -1,440 Descending Boston Center
09:45 40.0394 -73.4050 44° Northeast 322 371 13,800 -1,440 Descending Boston Center
09:46 40.1006 -73.3297 43° Northeast 309 356 12,500 -1,380 Descending Boston Center
09:47 40.1572 -73.2572 44° Northeast 299 344 11,100 -1,200 Descending Boston Center
09:48 40.2181 -73.1847 42° Northeast 294 338 10,100 -1,020 Descending Boston Center
09:49 40.2706 -73.1172 44° Northeast 281 323 9,100 -600 Descending Boston Center
09:50 40.3211 -73.0525 44° Northeast 263 303 9,000 -900 Descending Boston Center
09:52 40.4667 -72.9667 24° Northeast 261 300 6,400 -1,320 Descending New York TRACON
09:53 40.5333 -72.9500 11° North 259 298 5,100 -1,260 Descending New York TRACON
09:54 40.6000 -72.9167 21° North 250 288 4,100 -1,020 Descending New York TRACON
09:55 40.6333 -73.0000 298° West 277 319 3,000 -540 Descending New York TRACON
09:56 40.6333 -73.1000 270° West 272 313 3,000 -360 Level New York TRACON
09:57 40.6333 -73.1833 270° West 255 293 2,400 -540 Descending New York TRACON
09:58 40.6667 -73.2500 303° West 218 251 2,000 -240 Descending New York TRACON
09:59 40.7000 -73.2167 37° Northeast 158 182 2,000 -240 Level New York TRACON
10:00 40.7333 -73.1833 37° Northeast 145 167 1,600 -540 Descending New York TRACON
10:01 40.7667 -73.1500 37° Northeast 121 139 1,000 -600 Descending New York TRACON